Portada
METAR-TAF:

METAR-TAF

Aeroports :

Doylestown Airport

Doylestown, Pennsilvània, Estats Units d'Amèrica

latitud: 40-19-48N, longitud: 075-07-21W, altitud: 120 m

Observació

L'informe es va fer fa 22 minuts, a les 13:54 UTC
Vent 7 kt del Nord
Temperatura 3°C
Humitat 87%
Pressió 1012 hPa
Visibilitat: 9.7 km
Cel cobert a una alçada de 600 ft
boirina

METAR: KDYL 181354Z AUTO 36007KT 6SM BR OVC006 03/01 A2987 RMK AO2 CIG 004V008 SLP119 T00330011

Hora: 09:16 (14:16 UTC)


TAF: manca

Observacions i pronòstics meteorològics de més de 4000 aeroports (METAR i TAF).

Les estacions disponibles són els punts grocs i vermells al mapa.

Posi el ratolí al punt desitjat per veure el nom de l'estació.

Feu clic per veure les observacions i els pronòstics meteorològics.

Per canviar el mapa: feu clic els botons verds amb una creu de color negre per apropar; al botó verd amb un guió per allunyar la imatge; o en les fletxes verdes per a mapes adjacents.


METAR-TAF: